createdAt,value
2018-07-30T00:01:33.183Z,22.60
2018-07-30T00:04:03.615Z,22.60
2018-07-30T00:09:03.955Z,22.40
2018-07-30T00:11:34.013Z,22.40
2018-07-30T00:14:03.911Z,22.50
2018-07-30T00:16:34.079Z,22.40
2018-07-30T00:19:03.969Z,22.40
2018-07-30T00:21:34.102Z,22.40
2018-07-30T00:24:03.923Z,22.30
2018-07-30T00:26:33.673Z,22.50
2018-07-30T00:29:03.425Z,21.10
2018-07-30T00:31:33.627Z,22.50
2018-07-30T00:34:03.491Z,22.50
2018-07-30T00:36:33.140Z,22.40
2018-07-30T00:39:03.870Z,22.40
2018-07-30T00:41:33.656Z,22.40
2018-07-30T00:44:03.739Z,22.30
2018-07-30T00:46:33.533Z,22.30
2018-07-30T00:49:03.203Z,22.30
2018-07-30T00:51:33.291Z,22.10
2018-07-30T00:54:02.979Z,22.00
2018-07-30T00:56:32.707Z,21.90
2018-07-30T00:59:02.571Z,21.80
2018-07-30T01:01:32.185Z,21.90
2018-07-30T01:04:02.199Z,21.90
2018-07-30T01:06:32.366Z,22.00
2018-07-30T01:09:02.017Z,22.00
2018-07-30T01:11:31.669Z,21.90
2018-07-30T01:14:01.335Z,21.90
2018-07-30T01:16:30.932Z,21.90
2018-07-30T01:19:00.737Z,22.00
2018-07-30T01:21:31.199Z,22.00
2018-07-30T01:24:00.830Z,22.00
2018-07-30T01:26:30.486Z,22.00
2018-07-30T01:29:00.765Z,22.00
2018-07-30T01:31:30.360Z,22.00
2018-07-30T01:34:00.213Z,22.10
2018-07-30T01:36:29.887Z,22.10
2018-07-30T01:39:00.071Z,22.20
2018-07-30T01:41:29.698Z,22.10
2018-07-30T01:43:59.796Z,22.10
2018-07-30T01:48:58.923Z,22.10
2018-07-30T01:51:28.835Z,22.20
2018-07-30T01:53:58.464Z,22.30
2018-07-30T01:56:28.522Z,22.20
2018-07-30T01:58:58.159Z,22.00
2018-07-30T02:01:27.828Z,21.90
2018-07-30T02:03:57.767Z,21.90
2018-07-30T02:06:27.378Z,21.90
2018-07-30T02:08:57.033Z,21.90
2018-07-30T02:11:27.216Z,22.00
2018-07-30T02:13:56.938Z,22.00
2018-07-30T02:16:28.398Z,22.00
2018-07-30T02:18:58.904Z,22.00
2018-07-30T02:21:28.646Z,22.00
2018-07-30T02:23:58.320Z,23.10
2018-07-30T02:26:28.438Z,22.10
2018-07-30T02:28:58.085Z,22.10
2018-07-30T02:31:27.851Z,22.10
2018-07-30T02:33:57.770Z,22.00
2018-07-30T02:36:27.690Z,22.10
2018-07-30T02:38:57.340Z,22.00
2018-07-30T02:41:27.409Z,21.90
2018-07-30T02:43:57.043Z,21.90
2018-07-30T02:46:27.777Z,21.80
2018-07-30T02:48:57.447Z,21.70
2018-07-30T02:51:27.091Z,21.70
2018-07-30T02:53:57.146Z,21.60
2018-07-30T02:56:27.122Z,21.60
2018-07-30T02:58:56.844Z,21.70
2018-07-30T03:01:27.743Z,21.60
2018-07-30T03:03:58.416Z,21.70
2018-07-30T03:06:28.727Z,21.70
2018-07-30T03:08:58.324Z,21.60
2018-07-30T03:11:28.035Z,21.70
2018-07-30T03:13:58.029Z,21.80
2018-07-30T03:16:27.670Z,21.80
2018-07-30T03:18:57.615Z,21.70
2018-07-30T03:21:27.854Z,21.70
2018-07-30T03:23:57.749Z,21.70
2018-07-30T03:26:27.398Z,21.60
2018-07-30T03:28:57.459Z,21.50
2018-07-30T03:33:56.207Z,21.70
2018-07-30T03:36:26.186Z,21.60
2018-07-30T03:41:24.967Z,21.50
2018-07-30T03:43:55.999Z,21.50
2018-07-30T03:46:25.623Z,21.60
2018-07-30T03:48:55.627Z,21.40
2018-07-30T03:51:25.258Z,21.40
2018-07-30T03:56:24.441Z,21.30
2018-07-30T03:58:54.062Z,22.10
2018-07-30T04:01:23.808Z,21.40
2018-07-30T04:03:54.134Z,21.10
2018-07-30T04:06:23.790Z,21.40
2018-07-30T04:08:54.182Z,21.40
2018-07-30T04:11:24.074Z,21.40
2018-07-30T04:13:53.772Z,21.30
2018-07-30T04:16:23.410Z,22.50
2018-07-30T04:18:53.315Z,21.50
2018-07-30T04:21:22.950Z,21.40
2018-07-30T04:23:52.639Z,21.50
2018-07-30T04:26:22.576Z,21.50
2018-07-30T04:28:52.304Z,21.40
2018-07-30T04:31:22.265Z,21.50
2018-07-30T04:33:52.476Z,21.50
2018-07-30T04:36:22.743Z,21.50
2018-07-30T04:38:53.163Z,21.60
2018-07-30T04:41:24.139Z,21.70
2018-07-30T04:43:56.812Z,21.80
2018-07-30T04:46:27.477Z,21.80
2018-07-30T04:48:57.909Z,22.00
2018-07-30T04:51:27.696Z,22.10
2018-07-30T04:53:57.755Z,22.30
2018-07-30T04:56:27.744Z,22.40
2018-07-30T04:58:57.796Z,22.60
2018-07-30T05:01:27.854Z,22.60
2018-07-30T05:03:57.937Z,22.90
2018-07-30T05:06:27.603Z,23.50
2018-07-30T05:09:00.732Z,23.10
2018-07-30T05:11:31.198Z,23.20
2018-07-30T05:14:00.828Z,23.40
2018-07-30T05:16:30.451Z,23.60
2018-07-30T05:19:01.178Z,24.30
2018-07-30T05:21:31.228Z,25.90
2018-07-30T05:24:01.293Z,24.90
2018-07-30T05:26:31.366Z,24.50
2018-07-30T05:29:01.254Z,23.60
2018-07-30T05:31:32.451Z,26.00
2018-07-30T05:34:04.357Z,27.30
2018-07-30T05:36:34.302Z,28.60
2018-07-30T05:39:07.419Z,30.00
2018-07-30T05:41:37.231Z,30.70
2018-07-30T05:44:06.976Z,31.40
2018-07-30T05:46:37.308Z,31.90
2018-07-30T05:49:07.410Z,31.10
2018-07-30T05:51:38.296Z,30.40
2018-07-30T05:54:09.404Z,29.80
2018-07-30T05:56:39.117Z,30.50
2018-07-30T05:59:09.639Z,31.30
2018-07-30T06:01:42.091Z,32.40
2018-07-30T06:04:12.115Z,33.30
2018-07-30T06:06:42.207Z,34.20
2018-07-30T06:09:13.048Z,32.20
2018-07-30T06:11:43.088Z,31.50
2018-07-30T06:14:13.682Z,30.50
2018-07-30T06:16:43.859Z,29.80
2018-07-30T06:19:13.992Z,29.80
2018-07-30T06:21:45.217Z,29.50
2018-07-30T06:24:15.346Z,29.00
2018-07-30T06:26:45.095Z,28.90
2018-07-30T06:29:15.391Z,29.10
2018-07-30T06:31:45.203Z,29.30
2018-07-30T06:34:30.406Z,29.50
2018-07-30T06:37:02.335Z,29.60
2018-07-30T06:39:32.474Z,29.60
2018-07-30T06:42:02.834Z,29.60
2018-07-30T06:44:33.264Z,29.80
2018-07-30T06:47:04.503Z,29.70
2018-07-30T06:49:36.108Z,29.80
2018-07-30T06:52:07.094Z,29.80
2018-07-30T06:54:38.155Z,29.90
2018-07-30T06:57:09.956Z,30.00
2018-07-30T06:59:39.766Z,30.00
2018-07-30T07:02:09.681Z,30.00
2018-07-30T07:04:41.367Z,29.30
2018-07-30T07:07:11.552Z,29.70
2018-07-30T07:09:42.209Z,29.60
2018-07-30T07:12:14.757Z,30.00
2018-07-30T07:14:44.499Z,30.20
2018-07-30T07:17:14.850Z,30.50
2018-07-30T07:19:44.951Z,30.60
2018-07-30T07:22:15.194Z,30.50
2018-07-30T07:24:52.599Z,30.50
2018-07-30T07:27:34.263Z,30.20
2018-07-30T07:30:05.622Z,30.10
2018-07-30T07:32:35.459Z,29.60
2018-07-30T07:35:10.587Z,29.40
2018-07-30T07:37:56.001Z,29.50
2018-07-30T07:40:33.108Z,29.60
2018-07-30T07:43:06.696Z,29.40
2018-07-30T07:45:37.312Z,28.80
2018-07-30T07:48:07.671Z,28.50
2018-07-30T07:50:39.645Z,28.80
2018-07-30T07:53:10.219Z,28.80
2018-07-30T07:55:41.052Z,29.00
2018-07-30T07:58:12.547Z,28.70
2018-07-30T08:00:42.791Z,29.10
2018-07-30T08:03:13.149Z,29.20
2018-07-30T08:05:43.401Z,29.20
2018-07-30T08:08:16.469Z,28.80
2018-07-30T08:10:51.772Z,28.90
2018-07-30T08:13:24.933Z,29.00
2018-07-30T08:15:56.006Z,29.70
2018-07-30T08:18:27.327Z,30.20
2018-07-30T08:21:01.244Z,30.50
2018-07-30T08:23:31.277Z,30.60
2018-07-30T08:26:01.259Z,30.20
2018-07-30T08:28:31.498Z,29.70
2018-07-30T08:31:06.801Z,29.60
2018-07-30T08:33:39.533Z,29.70
2018-07-30T08:36:09.777Z,30.30
2018-07-30T08:38:43.131Z,29.60
2018-07-30T08:41:15.354Z,30.00
2018-07-30T08:43:46.463Z,30.30
2018-07-30T08:46:16.184Z,30.20
2018-07-30T08:48:46.154Z,30.20
2018-07-30T08:51:18.763Z,30.60
2018-07-30T08:53:49.296Z,30.80
2018-07-30T08:56:20.350Z,30.90
2018-07-30T08:58:56.814Z,30.30
2018-07-30T09:01:27.818Z,29.20
2018-07-30T09:03:57.659Z,28.90
2018-07-30T09:06:29.413Z,28.80
2018-07-30T09:08:59.510Z,29.00
2018-07-30T09:11:30.955Z,29.10
2018-07-30T09:14:03.352Z,28.80
2018-07-30T09:16:41.774Z,29.00
2018-07-30T09:19:13.544Z,29.40
2018-07-30T09:21:44.357Z,29.10
2018-07-30T09:24:17.650Z,28.60
2018-07-30T09:26:47.727Z,29.00
2018-07-30T09:29:17.670Z,29.10
2018-07-30T09:31:47.526Z,28.80
2018-07-30T09:34:17.828Z,28.90
2018-07-30T09:36:48.761Z,28.90
2018-07-30T09:39:19.899Z,28.70
2018-07-30T09:41:50.533Z,28.80
2018-07-30T09:44:21.532Z,28.80
2018-07-30T09:46:51.288Z,28.60
2018-07-30T09:49:22.639Z,28.90
2018-07-30T09:51:53.607Z,29.00
2018-07-30T09:54:23.421Z,28.50
2018-07-30T09:56:55.374Z,28.40
2018-07-30T09:59:25.786Z,28.70
2018-07-30T10:01:56.667Z,28.60
2018-07-30T10:04:29.805Z,28.40
2018-07-30T10:07:00.201Z,28.50
2018-07-30T10:09:31.233Z,28.30
2018-07-30T10:12:02.890Z,28.60
2018-07-30T10:14:36.461Z,28.80
2018-07-30T10:17:07.417Z,29.30
2018-07-30T10:19:47.423Z,29.40
2018-07-30T10:22:22.738Z,29.60
2018-07-30T10:25:02.933Z,30.10
2018-07-30T10:27:41.620Z,30.40
2018-07-30T10:30:14.755Z,30.70
2018-07-30T10:32:56.833Z,30.60
2018-07-30T10:35:36.881Z,29.90
2018-07-30T10:38:07.904Z,29.50
2018-07-30T10:40:41.794Z,29.60
2018-07-30T10:43:14.713Z,29.40
2018-07-30T10:45:44.762Z,29.50
2018-07-30T10:48:20.916Z,29.80
2018-07-30T10:51:02.100Z,29.70
2018-07-30T10:53:46.385Z,30.00
2018-07-30T10:57:04.054Z,30.50
2018-07-30T11:02:36.461Z,30.70
2018-07-30T11:05:17.809Z,30.90
2018-07-30T11:08:05.524Z,31.30
2018-07-30T11:10:47.099Z,31.50
2018-07-30T11:13:33.496Z,31.10
2018-07-30T11:16:29.631Z,31.00
2018-07-30T11:19:07.207Z,31.00
2018-07-30T11:22:04.521Z,30.90
2018-07-30T11:24:52.717Z,30.60
2018-07-30T11:27:28.102Z,31.00
2018-07-30T11:29:58.841Z,31.60
2018-07-30T11:32:29.156Z,31.20
2018-07-30T11:35:00.448Z,31.30
2018-07-30T11:37:32.853Z,31.10
2018-07-30T11:40:06.888Z,31.20
2018-07-30T11:42:40.200Z,31.50
2018-07-30T11:45:11.147Z,31.10
2018-07-30T11:47:41.035Z,30.90
2018-07-30T11:50:11.966Z,30.60
2018-07-30T11:52:43.143Z,30.80
2018-07-30T11:55:13.186Z,30.90
2018-07-30T11:57:43.277Z,30.80
2018-07-30T12:00:14.800Z,31.00
2018-07-30T12:02:45.188Z,31.60
2018-07-30T12:05:15.803Z,31.70
2018-07-30T12:07:45.849Z,31.30
2018-07-30T12:10:17.160Z,31.80
2018-07-30T12:12:47.807Z,31.80
2018-07-30T12:15:18.011Z,31.60
2018-07-30T12:17:48.015Z,31.40
2018-07-30T12:20:18.687Z,31.30
2018-07-30T12:22:50.663Z,31.40
2018-07-30T12:25:21.606Z,31.60
2018-07-30T12:27:53.557Z,31.50
2018-07-30T12:30:23.612Z,31.60
2018-07-30T12:32:55.858Z,32.10
2018-07-30T12:35:26.843Z,32.70
2018-07-30T12:37:57.377Z,33.20
2018-07-30T12:40:32.596Z,33.50
2018-07-30T12:43:04.357Z,33.10
2018-07-30T12:45:49.406Z,33.30
2018-07-30T12:48:21.400Z,33.40
2018-07-30T12:50:53.111Z,33.40
2018-07-30T12:53:23.243Z,33.30
2018-07-30T12:55:53.952Z,33.20
2018-07-30T12:58:25.499Z,32.60
2018-07-30T13:00:57.183Z,32.50
2018-07-30T13:03:28.776Z,32.80
2018-07-30T13:06:01.087Z,33.00
2018-07-30T13:08:35.854Z,33.10
2018-07-30T13:11:09.625Z,32.80
2018-07-30T13:13:39.943Z,32.30
2018-07-30T13:16:10.671Z,32.50
2018-07-30T13:18:40.375Z,32.90
2018-07-30T13:21:11.191Z,32.60
2018-07-30T13:23:41.642Z,31.80
2018-07-30T13:26:14.908Z,31.60
2018-07-30T13:28:47.256Z,31.90
2018-07-30T13:31:18.089Z,32.10
2018-07-30T13:33:50.803Z,32.10
2018-07-30T13:36:21.754Z,31.90
2018-07-30T13:38:54.438Z,31.80
2018-07-30T13:41:27.009Z,31.60
2018-07-30T13:43:58.506Z,31.40
2018-07-30T13:46:30.336Z,31.20
2018-07-30T13:49:06.708Z,31.40
2018-07-30T13:51:39.917Z,32.20
2018-07-30T13:54:10.664Z,31.60
2018-07-30T13:56:46.491Z,31.90
2018-07-30T13:59:21.782Z,31.20
2018-07-30T14:01:53.345Z,32.40
2018-07-30T14:04:24.385Z,32.30
2018-07-30T14:06:54.291Z,32.80
2018-07-30T14:09:25.247Z,32.90
2018-07-30T14:11:56.756Z,33.30
2018-07-30T14:14:28.246Z,33.70
2018-07-30T14:17:02.727Z,33.90
2018-07-30T14:19:33.774Z,33.70
2018-07-30T14:22:05.185Z,33.70
2018-07-30T14:24:37.816Z,33.40
2018-07-30T14:27:08.172Z,33.20
2018-07-30T14:29:38.803Z,32.90
2018-07-30T14:32:09.056Z,33.10
2018-07-30T14:34:39.549Z,32.40
2018-07-30T14:37:09.347Z,32.20
2018-07-30T14:39:39.676Z,32.10
2018-07-30T14:42:10.916Z,31.80
2018-07-30T14:44:40.932Z,32.10
2018-07-30T14:47:11.153Z,32.20
2018-07-30T14:49:41.683Z,32.00
2018-07-30T14:52:11.791Z,32.20
2018-07-30T14:54:41.942Z,32.20
2018-07-30T14:57:12.710Z,32.60
2018-07-30T14:59:44.545Z,32.80
2018-07-30T15:02:14.944Z,33.00
2018-07-30T15:04:45.375Z,33.30
2018-07-30T15:07:15.924Z,33.40
2018-07-30T15:09:48.288Z,33.20
2018-07-30T15:12:19.863Z,32.80
2018-07-30T15:14:50.044Z,32.80
2018-07-30T15:17:20.833Z,32.70
2018-07-30T15:19:50.550Z,33.10
2018-07-30T15:22:20.665Z,33.40
2018-07-30T15:24:51.661Z,33.70
2018-07-30T15:27:21.421Z,33.40
2018-07-30T15:29:51.282Z,32.90
2018-07-30T15:32:26.798Z,33.30
2018-07-30T15:34:56.704Z,33.50
2018-07-30T15:37:27.786Z,33.40
2018-07-30T15:39:57.819Z,33.50
2018-07-30T15:42:27.499Z,33.50
2018-07-30T15:44:58.149Z,33.40
2018-07-30T15:47:28.088Z,33.20
2018-07-30T15:49:58.266Z,33.00
2018-07-30T15:52:29.486Z,33.00
2018-07-30T15:55:03.215Z,33.10
2018-07-30T15:57:34.240Z,33.20
2018-07-30T16:00:06.341Z,33.20
2018-07-30T16:02:38.088Z,32.90
2018-07-30T16:05:14.238Z,33.10
2018-07-30T16:07:47.372Z,33.40
2018-07-30T16:10:17.765Z,33.50
2018-07-30T16:12:48.036Z,33.50
2018-07-30T16:15:18.390Z,33.40
2018-07-30T16:17:48.812Z,33.20
2018-07-30T16:20:18.610Z,33.20
2018-07-30T16:22:48.941Z,32.70
2018-07-30T16:25:20.339Z,32.20
2018-07-30T16:27:51.412Z,31.80
2018-07-30T16:30:22.105Z,31.70
2018-07-30T16:32:52.158Z,31.60
2018-07-30T16:35:22.848Z,31.80
2018-07-30T16:37:52.785Z,32.10
2018-07-30T16:40:23.951Z,32.40
2018-07-30T16:42:54.424Z,32.40
2018-07-30T16:45:27.792Z,32.40
2018-07-30T16:47:58.373Z,32.50
2018-07-30T16:50:29.764Z,32.70
2018-07-30T16:53:00.417Z,32.80
2018-07-30T16:55:34.208Z,32.70
2018-07-30T16:58:04.190Z,32.60
2018-07-30T17:00:34.991Z,32.60
2018-07-30T17:03:05.111Z,32.60
2018-07-30T17:05:35.204Z,32.70
2018-07-30T17:08:06.615Z,32.70
2018-07-30T17:10:36.500Z,32.40
2018-07-30T17:13:07.097Z,32.20
2018-07-30T17:15:37.419Z,32.00
2018-07-30T17:18:07.600Z,32.10
2018-07-30T17:20:37.939Z,32.30
2018-07-30T17:23:09.646Z,32.40
2018-07-30T17:25:46.387Z,32.40
2018-07-30T17:28:17.324Z,32.20
2018-07-30T17:30:47.176Z,32.20
2018-07-30T17:33:16.988Z,32.10
2018-07-30T17:35:47.095Z,32.20
2018-07-30T17:38:17.148Z,32.10
2018-07-30T17:40:47.686Z,32.10
2018-07-30T17:43:17.594Z,32.00
2018-07-30T17:45:47.587Z,31.80
2018-07-30T17:48:18.105Z,31.80
2018-07-30T17:50:50.470Z,31.80
2018-07-30T17:53:20.605Z,31.80
2018-07-30T17:55:53.901Z,31.90
2018-07-30T17:58:28.071Z,31.80
2018-07-30T18:01:00.316Z,31.80
2018-07-30T18:03:34.833Z,31.70
2018-07-30T18:06:08.118Z,31.60
2018-07-30T18:08:38.104Z,31.50
2018-07-30T18:11:08.746Z,30.80
2018-07-30T18:13:39.416Z,31.60
2018-07-30T18:16:10.341Z,31.50
2018-07-30T18:18:43.494Z,31.40
2018-07-30T18:21:17.453Z,31.30
2018-07-30T18:23:48.576Z,31.30
2018-07-30T18:26:20.267Z,31.20
2018-07-30T18:28:51.377Z,31.20
2018-07-30T18:31:21.842Z,31.10
2018-07-30T18:33:52.452Z,31.00
2018-07-30T18:36:29.691Z,31.00
2018-07-30T18:39:03.339Z,30.90
2018-07-30T18:41:36.665Z,30.90
2018-07-30T18:44:10.370Z,30.80
2018-07-30T18:46:40.732Z,30.70
2018-07-30T18:49:11.277Z,30.60
2018-07-30T18:51:45.935Z,30.50
2018-07-30T18:54:15.775Z,30.50
2018-07-30T18:56:45.468Z,30.40
2018-07-30T18:59:15.666Z,30.30
2018-07-30T19:01:46.017Z,30.20
2018-07-30T19:04:18.270Z,30.10
2018-07-30T19:06:48.098Z,30.00
2018-07-30T19:09:25.392Z,29.90
2018-07-30T19:11:57.364Z,29.90
2018-07-30T19:14:27.485Z,29.70
2018-07-30T19:16:57.594Z,29.60
2018-07-30T19:19:29.835Z,29.50
2018-07-30T19:22:04.325Z,29.50
2018-07-30T19:24:34.800Z,29.40
2018-07-30T19:27:07.303Z,29.30
2018-07-30T19:29:36.992Z,29.30
2018-07-30T19:32:08.188Z,29.20
2018-07-30T19:34:40.236Z,29.00
2018-07-30T19:37:12.085Z,28.90
2018-07-30T19:39:43.573Z,28.90
2018-07-30T19:42:18.275Z,28.70
2018-07-30T19:44:48.374Z,28.70
2018-07-30T19:47:19.487Z,28.50
2018-07-30T19:49:52.523Z,28.40
2018-07-30T19:52:23.781Z,28.30
2018-07-30T19:54:55.106Z,28.20
2018-07-30T19:57:25.151Z,28.10
2018-07-30T19:59:56.763Z,28.10
2018-07-30T20:02:28.776Z,28.20
2018-07-30T20:04:58.731Z,28.30
2018-07-30T20:07:29.122Z,28.20
2018-07-30T20:10:00.093Z,28.20
2018-07-30T20:12:30.906Z,28.00
2018-07-30T20:15:02.567Z,28.00
2018-07-30T20:17:36.254Z,27.70
2018-07-30T20:20:08.780Z,27.60
2018-07-30T20:22:38.591Z,27.50
2018-07-30T20:25:10.741Z,27.50
2018-07-30T20:27:45.869Z,27.50
2018-07-30T20:30:18.243Z,27.50
2018-07-30T20:32:49.881Z,27.50
2018-07-30T20:35:20.146Z,27.50
2018-07-30T20:37:52.222Z,27.40
2018-07-30T20:40:23.623Z,27.10
2018-07-30T20:42:55.312Z,27.10
2018-07-30T20:45:25.597Z,27.10
2018-07-30T20:47:58.207Z,27.10
2018-07-30T20:50:28.206Z,27.20
2018-07-30T20:52:59.064Z,27.20
2018-07-30T20:55:29.690Z,27.00
2018-07-30T20:58:00.416Z,26.90
2018-07-30T21:00:31.400Z,26.90
2018-07-30T21:03:01.737Z,26.90
2018-07-30T21:05:37.829Z,26.90
2018-07-30T21:08:10.597Z,25.70
2018-07-30T21:10:44.064Z,26.60
2018-07-30T21:13:14.924Z,26.60
2018-07-30T21:15:44.610Z,26.40
2018-07-30T21:18:14.484Z,26.50
2018-07-30T21:20:44.441Z,26.60
2018-07-30T21:23:15.299Z,26.60
2018-07-30T21:25:47.371Z,26.60
2018-07-30T21:28:25.430Z,26.60
2018-07-30T21:31:00.828Z,26.50
2018-07-30T21:33:34.952Z,26.50
2018-07-30T21:36:06.215Z,26.50
2018-07-30T21:38:38.768Z,26.40
2018-07-30T21:41:12.148Z,26.30
2018-07-30T21:43:43.345Z,26.20
2018-07-30T21:46:13.707Z,26.10
2018-07-30T21:48:44.788Z,26.00
2018-07-30T21:51:15.819Z,26.90
2018-07-30T21:53:47.057Z,25.90
2018-07-30T21:56:17.325Z,25.90
2018-07-30T21:58:48.638Z,25.90
2018-07-30T22:01:19.187Z,25.80
2018-07-30T22:03:49.338Z,25.70
2018-07-30T22:06:20.868Z,25.70
2018-07-30T22:08:52.412Z,25.70
2018-07-30T22:11:22.450Z,25.60
2018-07-30T22:13:52.090Z,25.60
2018-07-30T22:16:21.788Z,25.60
2018-07-30T22:18:52.188Z,25.60
2018-07-30T22:21:21.920Z,25.60
2018-07-30T22:23:54.452Z,25.40
2018-07-30T22:26:27.093Z,25.50
2018-07-30T22:28:56.817Z,25.40
2018-07-30T22:31:29.306Z,25.40
2018-07-30T22:33:59.180Z,25.30
2018-07-30T22:36:29.880Z,25.30
2018-07-30T22:39:00.311Z,25.30
2018-07-30T22:41:32.059Z,25.20
2018-07-30T22:44:01.800Z,25.20
2018-07-30T22:46:31.754Z,25.10
2018-07-30T22:49:01.638Z,25.00
2018-07-30T22:51:32.089Z,25.00
2018-07-30T22:54:03.606Z,25.00
2018-07-30T22:56:43.236Z,25.10
2018-07-30T22:59:14.215Z,25.00
2018-07-30T23:01:45.735Z,24.80
2018-07-30T23:04:15.355Z,24.80
2018-07-30T23:06:45.660Z,24.80
2018-07-30T23:09:15.449Z,24.80
2018-07-30T23:11:45.977Z,24.70
2018-07-30T23:14:16.835Z,24.70
2018-07-30T23:16:46.506Z,24.70
2018-07-30T23:19:17.006Z,24.60
2018-07-30T23:21:48.403Z,24.60
2018-07-30T23:24:18.097Z,24.50
2018-07-30T23:26:47.806Z,24.50
2018-07-30T23:29:18.088Z,24.40
2018-07-30T23:31:48.000Z,24.40
2018-07-30T23:34:19.730Z,24.30
2018-07-30T23:36:49.731Z,24.30
2018-07-30T23:39:19.771Z,24.40
2018-07-30T23:41:50.161Z,24.40
2018-07-30T23:44:20.455Z,24.40
2018-07-30T23:46:50.551Z,24.30
2018-07-30T23:49:20.320Z,24.30
2018-07-30T23:51:50.430Z,24.30
2018-07-30T23:54:20.163Z,24.30
2018-07-30T23:56:49.810Z,24.20
2018-07-30T23:59:19.921Z,24.10
